sensor_id;sensor_type;location;lat;lon;timestamp;pressure;altitude;pressure_sealevel;temperature;humidity
74169;BME280;62523;53.336;83.690;2023-07-13T00:03:47;98988.88;;;23.94;100.00
74169;BME280;62523;53.336;83.690;2023-07-13T00:08:49;98980.16;;;24.29;100.00
74169;BME280;62523;53.336;83.690;2023-07-13T00:13:51;98978.84;;;24.63;100.00
74169;BME280;62523;53.336;83.690;2023-07-13T00:18:52;98970.81;;;25.14;100.00
74169;BME280;62523;53.336;83.690;2023-07-13T00:23:54;98970.94;;;25.21;100.00
74169;BME280;62523;53.336;83.690;2023-07-13T00:28:55;98960.69;;;25.74;100.00
74169;BME280;62523;53.336;83.690;2023-07-13T00:33:57;98954.16;;;27.03;100.00
74169;BME280;62523;53.336;83.690;2023-07-13T00:38:58;98948.44;;;26.22;100.00
74169;BME280;62523;53.336;83.690;2023-07-13T00:44:00;98960.56;;;25.83;100.00
74169;BME280;62523;53.336;83.690;2023-07-13T00:49:04;98954.00;;;26.42;100.00
74169;BME280;62523;53.336;83.690;2023-07-13T00:54:14;98956.50;;;27.20;100.00
74169;BME280;62523;53.336;83.690;2023-07-13T00:59:17;98946.41;;;27.42;94.70
74169;BME280;62523;53.336;83.690;2023-07-13T01:04:24;98943.59;;;27.15;95.83
74169;BME280;62523;53.336;83.690;2023-07-13T01:09:27;98941.47;;;27.65;90.76
74169;BME280;62523;53.336;83.690;2023-07-13T01:14:29;98940.34;;;27.33;92.51
74169;BME280;62523;53.336;83.690;2023-07-13T01:24:41;98939.59;;;27.79;88.04
74169;BME280;62523;53.336;83.690;2023-07-13T01:29:46;98936.09;;;28.25;84.41
74169;BME280;62523;53.336;83.690;2023-07-13T01:34:51;98938.13;;;28.56;84.90
74169;BME280;62523;53.336;83.690;2023-07-13T01:39:55;98928.91;;;28.77;81.45
74169;BME280;62523;53.336;83.690;2023-07-13T01:44:57;98932.97;;;28.08;87.47
74169;BME280;62523;53.336;83.690;2023-07-13T01:49:58;98931.59;;;28.84;83.14
74169;BME280;62523;53.336;83.690;2023-07-13T01:55:00;98918.25;;;29.73;77.87
74169;BME280;62523;53.336;83.690;2023-07-13T02:00:04;98913.78;;;29.02;79.09
74169;BME280;62523;53.336;83.690;2023-07-13T02:05:17;98912.19;;;29.64;76.29
74169;BME280;62523;53.336;83.690;2023-07-13T02:10:19;98906.19;;;28.78;77.34
74169;BME280;62523;53.336;83.690;2023-07-13T02:15:20;98895.69;;;28.95;76.53
74169;BME280;62523;53.336;83.690;2023-07-13T02:20:22;98897.72;;;29.07;76.25
74169;BME280;62523;53.336;83.690;2023-07-13T02:25:24;98888.78;;;28.34;80.67
74169;BME280;62523;53.336;83.690;2023-07-13T02:30:28;98886.34;;;28.00;81.77
74169;BME280;62523;53.336;83.690;2023-07-13T02:35:31;98886.72;;;27.83;84.92
74169;BME280;62523;53.336;83.690;2023-07-13T02:40:33;98875.47;;;28.19;84.64
74169;BME280;62523;53.336;83.690;2023-07-13T02:45:36;98868.78;;;28.49;79.84
74169;BME280;62523;53.336;83.690;2023-07-13T02:50:38;98866.41;;;28.72;78.74
74169;BME280;62523;53.336;83.690;2023-07-13T02:55:39;98862.28;;;29.02;75.39
74169;BME280;62523;53.336;83.690;2023-07-13T03:00:42;98856.84;;;29.08;74.17
74169;BME280;62523;53.336;83.690;2023-07-13T03:05:44;98861.72;;;29.31;73.32
74169;BME280;62523;53.336;83.690;2023-07-13T03:11:04;98859.34;;;29.42;72.75
74169;BME280;62523;53.336;83.690;2023-07-13T03:16:10;98853.72;;;30.18;69.89
74169;BME280;62523;53.336;83.690;2023-07-13T03:21:12;98851.91;;;30.31;66.51
74169;BME280;62523;53.336;83.690;2023-07-13T03:26:17;98836.81;;;30.53;66.31
74169;BME280;62523;53.336;83.690;2023-07-13T03:31:22;98834.94;;;30.54;65.61
74169;BME280;62523;53.336;83.690;2023-07-13T03:36:28;98831.00;;;30.50;65.06
74169;BME280;62523;53.336;83.690;2023-07-13T03:41:33;98835.53;;;30.56;63.89
74169;BME280;62523;53.336;83.690;2023-07-13T03:46:34;98832.56;;;30.94;63.39
74169;BME280;62523;53.336;83.690;2023-07-13T03:51:37;98827.75;;;31.08;62.73
74169;BME280;62523;53.336;83.690;2023-07-13T03:56:40;98832.66;;;31.30;60.99
74169;BME280;62523;53.336;83.690;2023-07-13T04:01:44;98831.72;;;31.36;58.77
74169;BME280;62523;53.336;83.690;2023-07-13T04:06:47;98824.81;;;31.63;60.20
74169;BME280;62523;53.336;83.690;2023-07-13T04:11:48;98833.44;;;31.49;56.03
74169;BME280;62523;53.336;83.690;2023-07-13T04:16:50;98824.47;;;31.83;54.94
74169;BME280;62523;53.336;83.690;2023-07-13T04:21:52;98828.88;;;31.84;52.23
74169;BME280;62523;53.336;83.690;2023-07-13T04:26:54;98831.81;;;31.71;52.78
74169;BME280;62523;53.336;83.690;2023-07-13T04:31:55;98835.16;;;32.09;52.83
74169;BME280;62523;53.336;83.690;2023-07-13T04:36:57;98843.88;;;32.46;52.68
74169;BME280;62523;53.336;83.690;2023-07-13T04:41:59;98833.94;;;32.28;54.11
74169;BME280;62523;53.336;83.690;2023-07-13T04:47:00;98833.63;;;32.13;53.69
74169;BME280;62523;53.336;83.690;2023-07-13T04:52:02;98827.31;;;32.24;54.01
74169;BME280;62523;53.336;83.690;2023-07-13T04:57:05;98829.38;;;32.69;53.02
74169;BME280;62523;53.336;83.690;2023-07-13T05:02:10;98833.53;;;32.48;53.91
74169;BME280;62523;53.336;83.690;2023-07-13T05:07:11;98834.56;;;32.07;54.16
74169;BME280;62523;53.336;83.690;2023-07-13T05:12:13;98825.34;;;32.08;53.66
74169;BME280;62523;53.336;83.690;2023-07-13T05:17:15;98835.91;;;32.68;52.74
74169;BME280;62523;53.336;83.690;2023-07-13T05:22:17;98833.63;;;32.24;53.78
74169;BME280;62523;53.336;83.690;2023-07-13T05:27:18;98834.06;;;32.21;52.15
74169;BME280;62523;53.336;83.690;2023-07-13T05:32:20;98830.88;;;32.24;51.02
74169;BME280;62523;53.336;83.690;2023-07-13T05:37:21;98824.06;;;32.62;51.29
74169;BME280;62523;53.336;83.690;2023-07-13T05:42:23;98818.25;;;32.59;49.56
74169;BME280;62523;53.336;83.690;2023-07-13T05:47:24;98807.38;;;32.47;49.36
74169;BME280;62523;53.336;83.690;2023-07-13T05:52:26;98796.75;;;33.03;48.80
74169;BME280;62523;53.336;83.690;2023-07-13T05:57:28;98791.16;;;33.10;47.30
74169;BME280;62523;53.336;83.690;2023-07-13T06:02:29;98784.31;;;33.24;47.44
74169;BME280;62523;53.336;83.690;2023-07-13T06:07:31;98782.47;;;33.46;45.85
74169;BME280;62523;53.336;83.690;2023-07-13T06:12:33;98784.41;;;33.00;45.68
74169;BME280;62523;53.336;83.690;2023-07-13T06:17:34;98780.13;;;33.04;46.06
74169;BME280;62523;53.336;83.690;2023-07-13T06:22:36;98781.19;;;33.03;45.61
74169;BME280;62523;53.336;83.690;2023-07-13T06:27:37;98772.66;;;32.83;44.97
74169;BME280;62523;53.336;83.690;2023-07-13T06:32:39;98766.69;;;32.86;43.90
74169;BME280;62523;53.336;83.690;2023-07-13T06:37:40;98761.34;;;32.91;43.62
74169;BME280;62523;53.336;83.690;2023-07-13T06:42:42;98752.47;;;32.84;44.72
74169;BME280;62523;53.336;83.690;2023-07-13T06:47:43;98735.56;;;32.99;44.43
74169;BME280;62523;53.336;83.690;2023-07-13T06:52:45;98748.16;;;33.51;42.68
74169;BME280;62523;53.336;83.690;2023-07-13T06:57:46;98735.91;;;33.02;43.35
74169;BME280;62523;53.336;83.690;2023-07-13T07:02:48;98731.25;;;33.03;42.24
74169;BME280;62523;53.336;83.690;2023-07-13T07:07:50;98728.81;;;32.73;44.21
74169;BME280;62523;53.336;83.690;2023-07-13T07:12:51;98720.22;;;33.10;44.02
74169;BME280;62523;53.336;83.690;2023-07-13T07:17:53;98715.81;;;33.25;42.23
74169;BME280;62523;53.336;83.690;2023-07-13T07:22:55;98721.84;;;33.28;41.49
74169;BME280;62523;53.336;83.690;2023-07-13T07:27:57;98702.91;;;33.38;42.01
74169;BME280;62523;53.336;83.690;2023-07-13T07:33:03;98700.34;;;33.31;41.59
74169;BME280;62523;53.336;83.690;2023-07-13T07:38:06;98696.78;;;33.48;39.72
74169;BME280;62523;53.336;83.690;2023-07-13T07:43:10;98696.16;;;33.79;39.69
74169;BME280;62523;53.336;83.690;2023-07-13T07:48:12;98695.75;;;33.71;39.26
74169;BME280;62523;53.336;83.690;2023-07-13T07:53:14;98694.25;;;33.41;38.48
74169;BME280;62523;53.336;83.690;2023-07-13T07:58:15;98674.75;;;33.71;37.74
74169;BME280;62523;53.336;83.690;2023-07-13T08:03:17;98679.06;;;33.89;37.37
74169;BME280;62523;53.336;83.690;2023-07-13T08:08:19;98683.50;;;34.12;36.53
74169;BME280;62523;53.336;83.690;2023-07-13T08:13:20;98670.84;;;34.11;37.74
74169;BME280;62523;53.336;83.690;2023-07-13T08:18:22;98668.28;;;33.99;36.87
74169;BME280;62523;53.336;83.690;2023-07-13T08:23:24;98653.97;;;33.53;39.41
74169;BME280;62523;53.336;83.690;2023-07-13T08:28:27;98651.81;;;33.94;38.19
74169;BME280;62523;53.336;83.690;2023-07-13T08:33:29;98636.50;;;34.15;36.28
74169;BME280;62523;53.336;83.690;2023-07-13T08:38:31;98641.56;;;34.56;35.72
74169;BME280;62523;53.336;83.690;2023-07-13T08:43:50;98645.09;;;33.80;36.95
74169;BME280;62523;53.336;83.690;2023-07-13T08:48:56;98621.53;;;33.35;39.02
74169;BME280;62523;53.336;83.690;2023-07-13T08:54:03;98623.00;;;33.42;38.69
74169;BME280;62523;53.336;83.690;2023-07-13T08:59:13;98607.31;;;33.55;38.08
74169;BME280;62523;53.336;83.690;2023-07-13T09:04:18;98620.25;;;33.42;37.96
74169;BME280;62523;53.336;83.690;2023-07-13T09:14:59;98611.13;;;33.15;49.83
74169;BME280;62523;53.336;83.690;2023-07-13T09:25:26;98611.09;;;32.30;55.59
74169;BME280;62523;53.336;83.690;2023-07-13T09:30:39;98588.66;;;32.40;55.78
74169;BME280;62523;53.336;83.690;2023-07-13T09:35:44;98599.03;;;32.43;56.36
74169;BME280;62523;53.336;83.690;2023-07-13T09:41:08;98594.84;;;32.07;58.37
74169;BME280;62523;53.336;83.690;2023-07-13T09:46:21;98579.75;;;31.87;60.14
74169;BME280;62523;53.336;83.690;2023-07-13T09:51:26;98569.59;;;31.82;61.28
74169;BME280;62523;53.336;83.690;2023-07-13T09:56:29;98559.84;;;31.58;62.02
74169;BME280;62523;53.336;83.690;2023-07-13T10:01:33;98559.22;;;31.68;61.42
74169;BME280;62523;53.336;83.690;2023-07-13T10:06:35;98577.91;;;31.64;62.69
74169;BME280;62523;53.336;83.690;2023-07-13T10:11:39;98582.66;;;31.69;62.46
74169;BME280;62523;53.336;83.690;2023-07-13T10:16:44;98573.72;;;31.85;60.67
74169;BME280;62523;53.336;83.690;2023-07-13T10:22:01;98585.34;;;31.80;60.45
74169;BME280;62523;53.336;83.690;2023-07-13T10:27:17;98583.84;;;31.61;62.64
74169;BME280;62523;53.336;83.690;2023-07-13T10:32:21;98595.25;;;31.46;62.81
74169;BME280;62523;53.336;83.690;2023-07-13T10:37:31;98591.44;;;31.35;64.76
74169;BME280;62523;53.336;83.690;2023-07-13T10:42:40;98578.59;;;30.95;65.75
74169;BME280;62523;53.336;83.690;2023-07-13T10:47:44;98568.41;;;30.79;66.95
74169;BME280;62523;53.336;83.690;2023-07-13T10:52:52;98572.44;;;30.88;65.92
74169;BME280;62523;53.336;83.690;2023-07-13T10:58:37;98570.41;;;30.95;65.57
74169;BME280;62523;53.336;83.690;2023-07-13T11:03:55;98548.66;;;30.83;65.93
74169;BME280;62523;53.336;83.690;2023-07-13T11:15:11;98578.19;;;30.68;65.40
74169;BME280;62523;53.336;83.690;2023-07-13T11:35:29;98548.91;;;31.06;61.16
74169;BME280;62523;53.336;83.690;2023-07-13T11:40:32;98540.50;;;31.07;60.49
74169;BME280;62523;53.336;83.690;2023-07-13T11:45:33;98530.81;;;30.99;61.71
74169;BME280;62523;53.336;83.690;2023-07-13T11:50:35;98533.41;;;31.06;62.69
74169;BME280;62523;53.336;83.690;2023-07-13T11:55:38;98536.22;;;30.52;67.64
74169;BME280;62523;53.336;83.690;2023-07-13T12:00:40;98531.31;;;30.19;70.20
74169;BME280;62523;53.336;83.690;2023-07-13T12:05:59;98530.38;;;30.25;68.76
74169;BME280;62523;53.336;83.690;2023-07-13T12:11:17;98516.63;;;30.08;69.51
74169;BME280;62523;53.336;83.690;2023-07-13T12:16:32;98516.44;;;29.79;68.76
74169;BME280;62523;53.336;83.690;2023-07-13T12:21:38;98517.34;;;29.55;70.03
74169;BME280;62523;53.336;83.690;2023-07-13T12:26:40;98513.22;;;29.34;71.80
74169;BME280;62523;53.336;83.690;2023-07-13T12:31:45;98501.59;;;29.15;72.72
74169;BME280;62523;53.336;83.690;2023-07-13T12:41:54;98498.50;;;28.68;72.33
74169;BME280;62523;53.336;83.690;2023-07-13T12:47:13;98490.53;;;28.48;69.99
74169;BME280;62523;53.336;83.690;2023-07-13T12:52:21;98480.41;;;28.36;69.08
74169;BME280;62523;53.336;83.690;2023-07-13T12:57:24;98478.47;;;28.44;69.13
74169;BME280;62523;53.336;83.690;2023-07-13T13:02:32;98483.72;;;28.38;70.00
74169;BME280;62523;53.336;83.690;2023-07-13T13:07:34;98483.94;;;28.37;70.34
74169;BME280;62523;53.336;83.690;2023-07-13T13:12:36;98475.53;;;28.27;70.70
74169;BME280;62523;53.336;83.690;2023-07-13T13:17:37;98487.59;;;28.24;70.93
74169;BME280;62523;53.336;83.690;2023-07-13T13:22:39;98489.31;;;28.18;71.06
74169;BME280;62523;53.336;83.690;2023-07-13T13:27:42;98498.16;;;28.07;72.60
74169;BME280;62523;53.336;83.690;2023-07-13T13:32:46;98502.63;;;27.95;73.72
74169;BME280;62523;53.336;83.690;2023-07-13T13:37:48;98504.94;;;27.85;74.24
74169;BME280;62523;53.336;83.690;2023-07-13T13:42:51;98500.50;;;27.58;76.19
74169;BME280;62523;53.336;83.690;2023-07-13T13:47:54;98509.50;;;27.46;76.78
74169;BME280;62523;53.336;83.690;2023-07-13T13:52:56;98502.72;;;27.23;77.80
74169;BME280;62523;53.336;83.690;2023-07-13T13:57:57;98498.19;;;27.04;77.90
74169;BME280;62523;53.336;83.690;2023-07-13T14:02:59;98494.69;;;26.96;78.46
74169;BME280;62523;53.336;83.690;2023-07-13T14:08:01;98498.06;;;26.85;79.73
74169;BME280;62523;53.336;83.690;2023-07-13T14:13:02;98500.78;;;26.72;80.27
74169;BME280;62523;53.336;83.690;2023-07-13T14:18:08;98503.72;;;26.57;82.85
74169;BME280;62523;53.336;83.690;2023-07-13T14:23:10;98482.47;;;26.54;83.00
74169;BME280;62523;53.336;83.690;2023-07-13T14:28:24;98478.75;;;26.48;83.26
74169;BME280;62523;53.336;83.690;2023-07-13T14:33:27;98472.50;;;26.41;82.73
74169;BME280;62523;53.336;83.690;2023-07-13T14:38:29;98476.06;;;26.28;82.55
74169;BME280;62523;53.336;83.690;2023-07-13T14:43:30;98471.47;;;26.09;84.66
74169;BME280;62523;53.336;83.690;2023-07-13T14:48:41;98474.38;;;25.94;85.77
74169;BME280;62523;53.336;83.690;2023-07-13T14:53:45;98475.78;;;25.83;87.61
74169;BME280;62523;53.336;83.690;2023-07-13T14:58:47;98477.66;;;25.76;87.20
74169;BME280;62523;53.336;83.690;2023-07-13T15:03:51;98476.19;;;25.73;87.24
74169;BME280;62523;53.336;83.690;2023-07-13T15:08:53;98463.94;;;25.64;88.39
74169;BME280;62523;53.336;83.690;2023-07-13T15:13:54;98460.00;;;25.67;88.26
74169;BME280;62523;53.336;83.690;2023-07-13T15:18:58;98473.25;;;25.62;88.84
74169;BME280;62523;53.336;83.690;2023-07-13T15:24:00;98471.56;;;25.47;89.68
74169;BME280;62523;53.336;83.690;2023-07-13T15:29:04;98470.94;;;25.45;89.70
74169;BME280;62523;53.336;83.690;2023-07-13T15:34:15;98468.88;;;25.47;90.61
74169;BME280;62523;53.336;83.690;2023-07-13T15:39:17;98474.44;;;25.39;89.78
74169;BME280;62523;53.336;83.690;2023-07-13T15:44:36;98470.91;;;25.32;90.21
74169;BME280;62523;53.336;83.690;2023-07-13T15:49:39;98466.72;;;25.29;90.63
74169;BME280;62523;53.336;83.690;2023-07-13T15:54:41;98463.84;;;25.31;90.13
74169;BME280;62523;53.336;83.690;2023-07-13T15:59:43;98453.69;;;25.33;90.32
74169;BME280;62523;53.336;83.690;2023-07-13T16:04:46;98455.38;;;25.34;89.80
74169;BME280;62523;53.336;83.690;2023-07-13T16:09:48;98459.06;;;25.26;90.24
74169;BME280;62523;53.336;83.690;2023-07-13T16:14:51;98450.94;;;25.20;90.44
74169;BME280;62523;53.336;83.690;2023-07-13T16:19:52;98435.94;;;25.04;91.53
74169;BME280;62523;53.336;83.690;2023-07-13T16:24:57;98428.84;;;24.96;92.86
74169;BME280;62523;53.336;83.690;2023-07-13T16:30:00;98415.75;;;24.86;93.49
74169;BME280;62523;53.336;83.690;2023-07-13T16:35:01;98412.19;;;24.79;94.01
74169;BME280;62523;53.336;83.690;2023-07-13T16:45:25;98411.31;;;24.65;96.04
74169;BME280;62523;53.336;83.690;2023-07-13T16:50:31;98409.31;;;24.46;97.27
74169;BME280;62523;53.336;83.690;2023-07-13T16:55:33;98400.84;;;24.49;98.11
74169;BME280;62523;53.336;83.690;2023-07-13T17:00:34;98390.44;;;24.74;95.62
74169;BME280;62523;53.336;83.690;2023-07-13T17:05:40;98390.75;;;24.58;97.14
74169;BME280;62523;53.336;83.690;2023-07-13T17:10:42;98390.41;;;24.39;98.38
74169;BME280;62523;53.336;83.690;2023-07-13T17:15:50;98380.63;;;24.31;100.00
74169;BME280;62523;53.336;83.690;2023-07-13T17:20:57;98386.94;;;24.17;100.00
74169;BME280;62523;53.336;83.690;2023-07-13T17:25:58;98391.94;;;24.20;100.00
74169;BME280;62523;53.336;83.690;2023-07-13T17:31:00;98384.25;;;24.17;100.00
74169;BME280;62523;53.336;83.690;2023-07-13T17:36:13;98371.44;;;23.91;100.00
74169;BME280;62523;53.336;83.690;2023-07-13T17:41:15;98377.66;;;23.91;100.00
74169;BME280;62523;53.336;83.690;2023-07-13T17:46:31;98374.38;;;23.96;100.00
74169;BME280;62523;53.336;83.690;2023-07-13T17:51:33;98371.91;;;23.95;100.00
74169;BME280;62523;53.336;83.690;2023-07-13T17:56:37;98368.22;;;24.02;100.00
74169;BME280;62523;53.336;83.690;2023-07-13T18:01:38;98356.81;;;24.00;100.00
74169;BME280;62523;53.336;83.690;2023-07-13T18:06:45;98355.50;;;23.89;100.00
74169;BME280;62523;53.336;83.690;2023-07-13T18:11:57;98360.41;;;23.79;100.00
74169;BME280;62523;53.336;83.690;2023-07-13T18:16:59;98360.25;;;23.66;100.00
74169;BME280;62523;53.336;83.690;2023-07-13T18:22:13;98363.72;;;23.60;100.00
74169;BME280;62523;53.336;83.690;2023-07-13T18:27:16;98362.94;;;23.66;100.00
74169;BME280;62523;53.336;83.690;2023-07-13T18:32:19;98363.84;;;23.73;100.00
74169;BME280;62523;53.336;83.690;2023-07-13T18:37:21;98367.47;;;23.65;100.00
74169;BME280;62523;53.336;83.690;2023-07-13T18:42:23;98365.78;;;23.58;100.00
74169;BME280;62523;53.336;83.690;2023-07-13T18:47:25;98358.34;;;23.60;100.00
74169;BME280;62523;53.336;83.690;2023-07-13T18:52:30;98358.03;;;23.48;100.00
74169;BME280;62523;53.336;83.690;2023-07-13T18:57:31;98350.84;;;23.55;100.00
74169;BME280;62523;53.336;83.690;2023-07-13T19:02:33;98350.72;;;23.42;100.00
74169;BME280;62523;53.336;83.690;2023-07-13T19:07:35;98351.50;;;23.36;100.00
74169;BME280;62523;53.336;83.690;2023-07-13T19:12:37;98351.06;;;23.32;100.00
74169;BME280;62523;53.336;83.690;2023-07-13T19:17:39;98341.50;;;23.29;100.00
74169;BME280;62523;53.336;83.690;2023-07-13T19:22:41;98333.44;;;23.29;100.00
74169;BME280;62523;53.336;83.690;2023-07-13T19:27:42;98331.72;;;23.22;100.00
74169;BME280;62523;53.336;83.690;2023-07-13T19:32:44;98321.16;;;23.20;100.00
74169;BME280;62523;53.336;83.690;2023-07-13T19:37:46;98334.78;;;23.19;100.00
74169;BME280;62523;53.336;83.690;2023-07-13T19:42:48;98331.28;;;23.18;100.00
74169;BME280;62523;53.336;83.690;2023-07-13T19:47:50;98324.63;;;23.14;100.00
74169;BME280;62523;53.336;83.690;2023-07-13T19:52:52;98320.41;;;23.05;100.00
74169;BME280;62523;53.336;83.690;2023-07-13T19:57:57;98321.44;;;22.89;100.00
74169;BME280;62523;53.336;83.690;2023-07-13T20:02:58;98325.06;;;22.81;100.00
74169;BME280;62523;53.336;83.690;2023-07-13T20:08:00;98323.78;;;22.77;100.00
74169;BME280;62523;53.336;83.690;2023-07-13T20:13:02;98316.00;;;22.82;100.00
74169;BME280;62523;53.336;83.690;2023-07-13T20:18:04;98308.28;;;22.94;100.00
74169;BME280;62523;53.336;83.690;2023-07-13T20:23:18;98306.88;;;22.98;100.00
74169;BME280;62523;53.336;83.690;2023-07-13T20:28:20;98298.63;;;23.00;100.00
74169;BME280;62523;53.336;83.690;2023-07-13T20:33:25;98290.94;;;22.97;100.00
74169;BME280;62523;53.336;83.690;2023-07-13T20:38:27;98287.44;;;22.96;100.00
74169;BME280;62523;53.336;83.690;2023-07-13T20:43:29;98285.66;;;23.03;100.00
74169;BME280;62523;53.336;83.690;2023-07-13T20:48:45;98285.31;;;22.92;100.00
74169;BME280;62523;53.336;83.690;2023-07-13T20:53:52;98275.03;;;22.74;100.00
74169;BME280;62523;53.336;83.690;2023-07-13T20:58:55;98266.16;;;22.58;100.00
74169;BME280;62523;53.336;83.690;2023-07-13T21:03:59;98265.28;;;22.36;100.00
74169;BME280;62523;53.336;83.690;2023-07-13T21:09:01;98266.47;;;22.19;100.00
74169;BME280;62523;53.336;83.690;2023-07-13T21:14:02;98261.94;;;22.04;100.00
74169;BME280;62523;53.336;83.690;2023-07-13T21:19:04;98259.25;;;21.89;100.00
74169;BME280;62523;53.336;83.690;2023-07-13T21:24:09;98256.22;;;21.78;100.00
74169;BME280;62523;53.336;83.690;2023-07-13T21:29:10;98256.84;;;21.65;100.00
74169;BME280;62523;53.336;83.690;2023-07-13T21:34:17;98247.78;;;21.51;100.00
74169;BME280;62523;53.336;83.690;2023-07-13T21:39:20;98255.91;;;21.43;100.00
74169;BME280;62523;53.336;83.690;2023-07-13T21:44:27;98258.44;;;21.36;100.00
74169;BME280;62523;53.336;83.690;2023-07-13T21:49:29;98260.16;;;21.29;100.00
74169;BME280;62523;53.336;83.690;2023-07-13T21:54:31;98264.41;;;21.23;100.00
74169;BME280;62523;53.336;83.690;2023-07-13T21:59:33;98260.69;;;21.24;100.00
74169;BME280;62523;53.336;83.690;2023-07-13T22:04:35;98253.38;;;21.18;100.00
74169;BME280;62523;53.336;83.690;2023-07-13T22:09:37;98249.88;;;21.18;100.00
74169;BME280;62523;53.336;83.690;2023-07-13T22:14:39;98237.03;;;21.13;100.00
74169;BME280;62523;53.336;83.690;2023-07-13T22:19:41;98242.75;;;21.10;100.00
74169;BME280;62523;53.336;83.690;2023-07-13T22:24:43;98245.28;;;21.03;100.00
74169;BME280;62523;53.336;83.690;2023-07-13T22:29:45;98243.28;;;21.05;100.00
74169;BME280;62523;53.336;83.690;2023-07-13T22:34:47;98239.72;;;21.13;100.00
74169;BME280;62523;53.336;83.690;2023-07-13T22:39:50;98255.78;;;21.13;100.00
74169;BME280;62523;53.336;83.690;2023-07-13T22:44:52;98260.09;;;21.14;100.00
74169;BME280;62523;53.336;83.690;2023-07-13T22:49:53;98251.25;;;21.14;100.00
74169;BME280;62523;53.336;83.690;2023-07-13T22:54:54;98251.25;;;21.14;100.00
74169;BME280;62523;53.336;83.690;2023-07-13T22:59:59;98259.59;;;21.19;100.00
74169;BME280;62523;53.336;83.690;2023-07-13T23:05:00;98251.84;;;21.24;100.00
74169;BME280;62523;53.336;83.690;2023-07-13T23:10:14;98256.66;;;21.28;100.00
74169;BME280;62523;53.336;83.690;2023-07-13T23:15:17;98255.34;;;21.47;100.00
74169;BME280;62523;53.336;83.690;2023-07-13T23:20:32;98248.06;;;21.71;100.00
74169;BME280;62523;53.336;83.690;2023-07-13T23:25:34;98244.38;;;22.02;100.00
74169;BME280;62523;53.336;83.690;2023-07-13T23:30:38;98218.31;;;23.55;100.00
74169;BME280;62523;53.336;83.690;2023-07-13T23:35:41;98214.22;;;23.30;100.00
74169;BME280;62523;53.336;83.690;2023-07-13T23:40:42;98210.72;;;23.65;100.00
74169;BME280;62523;53.336;83.690;2023-07-13T23:45:44;98196.91;;;24.03;97.81
74169;BME280;62523;53.336;83.690;2023-07-13T23:50:46;98185.75;;;24.67;92.95
74169;BME280;62523;53.336;83.690;2023-07-13T23:55:49;98191.81;;;24.28;94.07
